Time;durP1;ratioP1;P1;durP2;ratioP2;P2;SDS_P1;SDS_P2;PMS_P1;PMS_P2;Temp;Humidity;BMP_temperature;BMP_pressure;BME280_temperature;BME280_humidity;BME280_pressure;Samples;Min_cycle;Max_cycle;Signal;HPM_P1;HPM_P2
2022/09/03 00:01:34;;;;;;;1.65;0.60;;;15.10;71.40;;;;;;4923919;29;20035;-70
2022/09/03 00:04:11;;;;;;;1.70;0.90;;;15.10;71.90;;;;;;4938398;29;20185;-70
2022/09/03 00:06:50;;;;;;;0.80;0.60;;;15.10;72.30;;;;;;4926225;28;20118;-70
2022/09/03 00:09:40;;;;;;;3.28;1.10;;;15.10;72.00;;;;;;4923750;29;20123;-70
2022/09/03 00:12:13;;;;;;;1.23;0.70;;;15.10;71.60;;;;;;4923021;29;20207;-71
2022/09/03 00:14:50;;;;;;;1.45;0.80;;;15.10;71.90;;;;;;4922120;29;20038;-70
2022/09/03 00:17:21;;;;;;;2.17;0.85;;;15.10;71.80;;;;;;4920848;29;20484;-71
2022/09/03 00:20:01;;;;;;;0.80;0.80;;;15.10;71.70;;;;;;4919460;29;20028;-70
2022/09/03 00:22:35;;;;;;;2.47;0.90;;;15.10;72.20;;;;;;4927928;29;20032;-70
2022/09/03 00:25:04;;;;;;;1.83;0.73;;;15.00;72.30;;;;;;4926097;29;20044;-70
2022/09/03 00:27:35;;;;;;;1.55;0.80;;;15.00;72.50;;;;;;4925181;29;20065;-71
2022/09/03 00:30:10;;;;;;;1.95;0.93;;;15.00;72.70;;;;;;4922360;29;20065;-70
2022/09/03 00:32:39;;;;;;;1.52;0.70;;;15.00;71.50;;;;;;4922888;29;20040;-71
2022/09/03 00:35:13;;;;;;;0.75;0.70;;;15.00;71.70;;;;;;4918504;29;20119;-70
2022/09/03 00:37:40;;;;;;;0.98;0.70;;;14.90;71.70;;;;;;4919951;29;20067;-70
2022/09/03 00:40:14;;;;;;;1.23;1.00;;;14.90;72.20;;;;;;4919603;29;20115;-70
2022/09/03 00:42:51;;;;;;;1.83;0.88;;;14.90;72.70;;;;;;4925745;29;20047;-70
2022/09/03 00:46:05;;;;;;;1.05;0.90;;;14.90;72.80;;;;;;4923703;29;20036;-70
2022/09/03 00:48:46;;;;;;;1.75;0.68;;;14.90;72.90;;;;;;4923677;29;20044;-70
2022/09/03 00:51:33;;;;;;;2.72;0.93;;;14.80;72.50;;;;;;4920987;29;20523;-70
2022/09/03 00:54:27;;;;;;;2.70;0.80;;;14.80;71.50;;;;;;4917652;29;20028;-70
2022/09/03 00:57:16;;;;;;;1.40;0.85;;;14.80;72.00;;;;;;4919258;29;20042;-70
2022/09/03 00:59:59;;;;;;;1.45;0.90;;;14.80;71.80;;;;;;4924733;29;20844;-70
2022/09/03 01:02:34;;;;;;;1.63;0.80;;;14.80;71.70;;;;;;4925272;29;20428;-70
2022/09/03 01:05:25;;;;;;;0.98;0.65;;;14.90;72.00;;;;;;4922905;29;20117;-70
2022/09/03 01:08:07;;;;;;;0.90;0.80;;;14.90;72.10;;;;;;4921151;29;20038;-70
2022/09/03 01:10:53;;;;;;;2.65;0.85;;;14.90;72.90;;;;;;4921804;29;20043;-70
2022/09/03 01:13:35;;;;;;;1.52;0.82;;;14.90;72.80;;;;;;4919472;29;20040;-70
2022/09/03 01:16:20;;;;;;;1.02;0.80;;;14.90;72.50;;;;;;4916313;29;20055;-70
2022/09/03 01:18:58;;;;;;;2.75;0.90;;;14.90;72.20;;;;;;4922492;29;20034;-70
2022/09/03 01:21:58;;;;;;;1.48;0.80;;;14.80;70.90;;;;;;4924480;29;20031;-70
2022/09/03 01:24:57;;;;;;;2.67;1.08;;;14.80;71.30;;;;;;4923416;29;20725;-70
2022/09/03 01:27:53;;;;;;;3.13;0.90;;;14.80;71.50;;;;;;4914206;29;20043;-69
2022/09/03 01:30:21;;;;;;;1.02;0.70;;;14.80;71.50;;;;;;4917145;29;20052;-70
2022/09/03 01:33:20;;;;;;;1.85;1.00;;;14.80;71.60;;;;;;4918545;29;20035;-70
2022/09/03 01:35:51;;;;;;;1.05;0.88;;;14.80;72.00;;;;;;4911905;29;20430;-70
2022/09/03 01:38:23;;;;;;;3.50;0.68;;;14.80;72.60;;;;;;4925011;29;20080;-70
2022/09/03 01:44:47;;;;;;;2.22;0.90;;;14.70;72.60;;;;;;4921635;29;20047;-70
2022/09/03 01:47:32;;;;;;;3.83;1.10;;;14.70;71.70;;;;;;4920295;29;20036;-70
2022/09/03 01:50:26;;;;;;;1.92;0.50;;;14.70;72.50;;;;;;4919861;29;20047;-70
2022/09/03 01:53:01;;;;;;;3.20;0.77;;;14.70;72.50;;;;;;4920439;29;20039;-70
2022/09/03 01:55:55;;;;;;;3.15;0.90;;;14.70;72.30;;;;;;4923223;29;20059;-70
2022/09/03 01:58:43;;;;;;;2.38;0.90;;;14.70;72.70;;;;;;4924719;29;20034;-70
2022/09/03 02:01:31;;;;;;;1.27;0.93;;;14.60;73.00;;;;;;4922038;29;20094;-69
2022/09/03 02:03:58;;;;;;;3.08;0.90;;;14.60;73.20;;;;;;4921682;29;20084;-70
2022/09/03 02:06:32;;;;;;;0.85;0.82;;;14.60;72.90;;;;;;4920981;29;20042;-70
2022/09/03 02:08:58;;;;;;;1.33;0.77;;;14.60;73.10;;;;;;4917290;29;20094;-70
2022/09/03 02:11:24;;;;;;;3.75;1.00;;;14.60;73.00;;;;;;4918633;29;20040;-70
2022/09/03 02:13:53;;;;;;;3.65;0.80;;;14.60;72.60;;;;;;4917951;29;20046;-70
2022/09/03 02:16:24;;;;;;;2.20;0.80;;;14.60;72.80;;;;;;4924139;29;20055;-70
2022/09/03 02:18:53;;;;;;;1.92;0.80;;;14.60;73.00;;;;;;4920996;29;20078;-70
2022/09/03 02:21:21;;;;;;;1.92;1.10;;;14.60;73.20;;;;;;4921956;29;20074;-69
2022/09/03 02:23:49;;;;;;;1.40;0.90;;;14.60;71.90;;;;;;4920675;29;20071;-70
2022/09/03 02:26:21;;;;;;;0.90;0.80;;;14.60;72.00;;;;;;4919045;29;20044;-69
2022/09/03 02:28:48;;;;;;;1.83;0.88;;;14.60;72.60;;;;;;4918184;29;20094;-70
2022/09/03 02:31:14;;;;;;;1.70;0.63;;;14.60;72.70;;;;;;4916993;29;20085;-70
2022/09/03 02:33:43;;;;;;;2.70;0.90;;;14.60;72.70;;;;;;4921602;29;20840;-70
2022/09/03 02:36:12;;;;;;;1.33;0.68;;;14.60;72.60;;;;;;4923690;29;20079;-69
2022/09/03 02:38:41;;;;;;;1.65;0.95;;;14.50;73.00;;;;;;4923415;28;20027;-70
2022/09/03 02:41:06;;;;;;;2.88;0.82;;;14.60;73.70;;;;;;4920740;29;20115;-70
2022/09/03 02:43:43;;;;;;;1.92;0.68;;;14.50;73.10;;;;;;4921231;28;20183;-70
2022/09/03 02:46:15;;;;;;;2.63;1.10;;;14.50;73.30;;;;;;4918328;29;20032;-70
2022/09/03 02:48:41;;;;;;;1.33;0.57;;;14.50;73.20;;;;;;4918619;29;20035;-69
2022/09/03 02:51:07;;;;;;;2.15;0.57;;;14.40;73.50;;;;;;4921584;29;20043;-70
2022/09/03 02:53:32;;;;;;;1.80;1.02;;;14.40;73.60;;;;;;4924790;29;20102;-70
2022/09/03 02:56:00;;;;;;;1.17;0.85;;;14.40;73.10;;;;;;4923143;29;20040;-70
2022/09/03 02:58:26;;;;;;;1.23;0.90;;;14.40;73.60;;;;;;4922693;29;20035;-69
2022/09/03 03:00:52;;;;;;;2.38;1.00;;;14.40;72.90;;;;;;4920589;29;20519;-70
2022/09/03 03:03:18;;;;;;;1.73;0.70;;;14.40;73.30;;;;;;4921567;29;20036;-69
2022/09/03 03:05:47;;;;;;;1.23;0.77;;;14.40;73.30;;;;;;4918452;29;20546;-69
2022/09/03 03:08:13;;;;;;;1.08;0.95;;;14.40;73.40;;;;;;4916496;29;20036;-69
2022/09/03 03:10:41;;;;;;;0.70;0.68;;;14.40;72.30;;;;;;4917648;29;20054;-70
2022/09/03 03:13:07;;;;;;;1.50;1.00;;;14.40;73.00;;;;;;4922777;29;20126;-69
2022/09/03 03:15:33;;;;;;;1.73;0.80;;;14.40;73.60;;;;;;4923366;29;20475;-69
2022/09/03 03:17:59;;;;;;;1.30;1.10;;;14.30;73.60;;;;;;4920946;29;20631;-69
2022/09/03 03:20:24;;;;;;;2.85;0.85;;;14.30;73.30;;;;;;4920994;29;20019;-69
2022/09/03 03:22:51;;;;;;;2.45;0.80;;;14.30;73.60;;;;;;4917884;29;20059;-69
2022/09/03 03:25:17;;;;;;;0.93;0.80;;;14.30;73.60;;;;;;4917676;29;20099;-70
2022/09/03 03:27:43;;;;;;;3.30;0.80;;;14.30;72.50;;;;;;4916988;29;20058;-69
2022/09/03 03:30:10;;;;;;;2.85;0.70;;;14.30;73.20;;;;;;4922242;29;20124;-69
2022/09/03 03:32:36;;;;;;;4.85;1.00;;;14.30;73.30;;;;;;4926762;29;20019;-70
2022/09/03 03:35:03;;;;;;;3.80;1.00;;;14.20;73.30;;;;;;4924782;29;20620;-69
2022/09/03 03:37:30;;;;;;;1.88;1.00;;;14.20;73.50;;;;;;4925383;28;20039;-70
2022/09/03 03:39:56;;;;;;;2.53;1.08;;;14.20;74.00;;;;;;4922633;29;20039;-70
2022/09/03 03:42:22;;;;;;;2.67;0.90;;;14.20;74.10;;;;;;4922083;29;20252;-70
2022/09/03 03:44:47;;;;;;;3.70;0.70;;;14.20;74.80;;;;;;4923935;29;20079;-69
2022/09/03 03:47:15;;;;;;;3.13;1.17;;;14.20;73.70;;;;;;4919485;29;20032;-70
2022/09/03 03:49:42;;;;;;;2.40;0.95;;;14.20;74.10;;;;;;4923960;29;20217;-70
2022/09/03 03:52:08;;;;;;;1.27;0.70;;;14.20;74.40;;;;;;4925647;29;20602;-69
2022/09/03 03:54:34;;;;;;;1.15;0.85;;;14.10;74.30;;;;;;4925211;29;20031;-69
2022/09/03 03:57:00;;;;;;;1.15;0.80;;;14.10;74.50;;;;;;4923403;29;20031;-71
2022/09/03 03:59:25;;;;;;;2.63;0.77;;;14.10;75.00;;;;;;4924082;29;20586;-70
2022/09/03 04:01:54;;;;;;;2.08;1.00;;;14.10;74.80;;;;;;4922393;29;20764;-69
2022/09/03 04:04:20;;;;;;;1.60;1.00;;;14.10;74.20;;;;;;4923980;29;20039;-70
2022/09/03 04:06:46;;;;;;;1.08;0.60;;;14.10;74.80;;;;;;4922652;29;20094;-70
2022/09/03 04:09:11;;;;;;;2.63;0.70;;;14.00;74.70;;;;;;4927202;29;20039;-70
2022/09/03 04:11:38;;;;;;;3.25;0.88;;;14.00;74.70;;;;;;4926617;29;20036;-69
2022/09/03 04:14:04;;;;;;;0.80;0.70;;;14.00;74.90;;;;;;4923206;29;20035;-69
2022/09/03 04:16:31;;;;;;;3.67;1.10;;;14.00;73.80;;;;;;4924227;28;20024;-69
2022/09/03 04:18:57;;;;;;;3.58;1.00;;;14.00;74.70;;;;;;4920979;29;20079;-69
2022/09/03 04:21:25;;;;;;;3.33;0.93;;;14.00;74.60;;;;;;4921286;29;20774;-70
2022/09/03 04:23:52;;;;;;;2.95;1.10;;;13.90;74.90;;;;;;4918002;29;20051;-69
2022/09/03 04:26:24;;;;;;;3.60;0.85;;;13.90;74.90;;;;;;4922729;29;20070;-69
2022/09/03 04:28:50;;;;;;;2.25;1.00;;;13.90;74.90;;;;;;4926241;28;20035;-70
2022/09/03 04:31:18;;;;;;;2.38;1.30;;;13.90;75.30;;;;;;4924214;29;20576;-69
2022/09/03 04:33:44;;;;;;;3.85;1.35;;;14.00;75.00;;;;;;4923230;29;20199;-70
2022/09/03 04:36:14;;;;;;;1.20;0.90;;;14.00;75.10;;;;;;4919405;29;20052;-69
2022/09/03 04:38:41;;;;;;;3.25;0.93;;;14.00;75.10;;;;;;4918216;29;20040;-70
2022/09/03 04:41:09;;;;;;;1.90;0.90;;;14.00;74.90;;;;;;4917810;29;20378;-70
2022/09/03 04:43:36;;;;;;;0.90;0.65;;;13.90;75.00;;;;;;4919082;29;20028;-70
2022/09/03 04:46:05;;;;;;;2.33;0.75;;;14.00;74.90;;;;;;4923345;29;20075;-69
2022/09/03 04:48:32;;;;;;;3.90;1.00;;;13.90;74.20;;;;;;4925577;29;20142;-70
2022/09/03 04:51:13;;;;;;;0.73;0.73;;;14.00;75.10;;;;;;4923409;29;20043;-69
2022/09/03 04:53:42;;;;;;;1.10;0.60;;;14.00;75.00;;;;;;4919560;29;20036;-70
2022/09/03 04:56:19;;;;;;;1.38;0.90;;;14.00;75.40;;;;;;4919691;29;20035;-70
2022/09/03 04:58:47;;;;;;;1.95;0.90;;;14.10;75.20;;;;;;4935181;29;20619;-69
2022/09/03 05:01:17;;;;;;;2.05;0.80;;;14.20;74.60;;;;;;4918098;29;20058;-70
2022/09/03 05:03:43;;;;;;;2.03;1.02;;;14.20;73.20;;;;;;4920510;29;20034;-70
2022/09/03 05:06:09;;;;;;;2.95;0.98;;;14.30;73.80;;;;;;4924896;29;20039;-69
2022/09/03 05:08:36;;;;;;;1.30;1.00;;;14.30;73.60;;;;;;4924514;28;20067;-69
2022/09/03 05:11:06;;;;;;;2.78;1.20;;;14.30;73.60;;;;;;4921839;29;20056;-69
2022/09/03 05:13:33;;;;;;;4.00;1.20;;;14.40;74.10;;;;;;4921807;28;20705;-70
2022/09/03 05:16:07;;;;;;;1.40;0.98;;;14.50;73.50;;;;;;4919301;29;20036;-69
2022/09/03 05:18:34;;;;;;;1.73;0.80;;;14.50;72.80;;;;;;4919711;29;20031;-69
2022/09/03 05:21:01;;;;;;;1.27;0.93;;;14.60;72.50;;;;;;4919478;29;20453;-69
2022/09/03 05:23:29;;;;;;;3.67;1.05;;;14.60;72.50;;;;;;4921532;29;20047;-69
2022/09/03 05:26:01;;;;;;;1.48;0.85;;;14.80;72.20;;;;;;4925336;29;20441;-68
2022/09/03 05:28:29;;;;;;;1.92;1.10;;;14.80;71.90;;;;;;4923359;29;20032;-69
2022/09/03 05:31:01;;;;;;;2.47;0.82;;;14.90;71.60;;;;;;4921774;29;20032;-69
2022/09/03 05:33:28;;;;;;;2.83;1.10;;;14.90;71.30;;;;;;4918110;29;20028;-70
2022/09/03 05:36:04;;;;;;;1.65;1.05;;;15.00;71.70;;;;;;4918522;29;20122;-69
2022/09/03 05:38:30;;;;;;;1.45;1.02;;;15.00;71.70;;;;;;4919284;29;20037;-69
2022/09/03 05:41:00;;;;;;;1.15;0.80;;;15.10;71.60;;;;;;4915371;29;20036;-70
2022/09/03 05:43:27;;;;;;;1.73;0.80;;;15.10;71.70;;;;;;4924257;29;20050;-70
2022/09/03 05:45:59;;;;;;;1.38;0.93;;;15.20;71.80;;;;;;4924139;29;20077;-69
2022/09/03 05:48:25;;;;;;;5.70;0.82;;;15.30;71.40;;;;;;4922901;29;20070;-70
2022/09/03 05:51:16;;;;;;;1.48;0.88;;;15.40;70.80;;;;;;4921153;29;20032;-69
2022/09/03 05:53:45;;;;;;;4.45;1.10;;;15.40;70.00;;;;;;4919726;29;20035;-70
2022/09/03 05:56:16;;;;;;;1.67;1.05;;;15.40;69.30;;;;;;4922866;29;20039;-70
2022/09/03 05:58:51;;;;;;;0.90;0.80;;;15.40;69.80;;;;;;4917681;29;20042;-69
2022/09/03 06:01:24;;;;;;;0.90;0.77;;;15.50;70.10;;;;;;4920121;29;20078;-70
2022/09/03 06:04:02;;;;;;;1.30;0.90;;;15.50;70.30;;;;;;4938885;28;20032;-70
2022/09/03 06:06:30;;;;;;;4.93;1.00;;;15.60;70.00;;;;;;4920895;29;20118;-70
2022/09/03 06:09:01;;;;;;;3.05;1.00;;;15.70;69.50;;;;;;4920886;29;20043;-69
2022/09/03 06:11:28;;;;;;;3.67;1.00;;;15.70;68.90;;;;;;4921717;28;20031;-70
2022/09/03 06:13:55;;;;;;;2.47;1.20;;;15.80;69.50;;;;;;4918521;29;20036;-70
2022/09/03 06:16:22;;;;;;;1.33;1.15;;;15.80;69.20;;;;;;4919238;29;20028;-70
2022/09/03 06:18:48;;;;;;;2.58;1.00;;;15.80;68.40;;;;;;4916333;29;20040;-70
2022/09/03 06:21:14;;;;;;;1.45;0.93;;;15.80;68.10;;;;;;4922756;29;20061;-70
2022/09/03 06:23:41;;;;;;;4.30;0.98;;;15.80;69.00;;;;;;4923525;28;20063;-70
2022/09/03 06:26:13;;;;;;;2.67;1.25;;;15.90;68.40;;;;;;4920421;29;20043;-70
2022/09/03 06:28:42;;;;;;;1.80;0.85;;;16.00;69.00;;;;;;4923036;29;20096;-70
2022/09/03 06:31:11;;;;;;;3.42;0.90;;;16.00;67.80;;;;;;4916632;29;20039;-70
2022/09/03 06:33:37;;;;;;;3.08;1.00;;;16.10;68.40;;;;;;4918266;29;20032;-70
2022/09/03 06:36:07;;;;;;;3.00;1.17;;;16.20;69.30;;;;;;4915280;29;20040;-70
2022/09/03 06:38:34;;;;;;;5.03;1.10;;;16.30;68.60;;;;;;4921487;29;20095;-70
2022/09/03 06:41:03;;;;;;;3.05;1.02;;;16.40;67.20;;;;;;4923779;29;20053;-70
2022/09/03 06:43:33;;;;;;;2.05;0.95;;;16.40;67.50;;;;;;4923032;28;20073;-70
2022/09/03 06:46:01;;;;;;;1.63;1.10;;;16.50;68.30;;;;;;4920702;29;20039;-70
2022/09/03 06:48:30;;;;;;;2.00;0.93;;;16.60;67.80;;;;;;4921169;29;20532;-70
2022/09/03 06:50:58;;;;;;;1.27;0.90;;;16.60;67.90;;;;;;4917716;29;20036;-70
2022/09/03 06:53:26;;;;;;;1.52;1.00;;;16.60;67.50;;;;;;4917228;29;20038;-70
2022/09/03 06:55:56;;;;;;;2.38;1.08;;;16.70;66.90;;;;;;4922336;29;20067;-69
2022/09/03 06:58:23;;;;;;;3.95;1.23;;;16.70;67.60;;;;;;4923671;29;20036;-70
2022/09/03 07:00:51;;;;;;;3.13;1.10;;;16.80;67.20;;;;;;4923997;28;20123;-70
2022/09/03 07:03:17;;;;;;;3.58;1.33;;;16.90;67.30;;;;;;4923986;29;20381;-70
2022/09/03 07:05:44;;;;;;;1.10;0.90;;;17.00;66.60;;;;;;4923025;29;20115;-70
2022/09/03 07:08:10;;;;;;;1.63;1.10;;;17.00;66.60;;;;;;4921858;29;20556;-69
2022/09/03 07:10:36;;;;;;;1.92;0.95;;;17.10;67.20;;;;;;4922214;29;20035;-70
2022/09/03 07:13:05;;;;;;;3.50;1.27;;;17.20;67.50;;;;;;4918449;29;20421;-70
2022/09/03 07:15:32;;;;;;;3.70;1.40;;;17.30;65.00;;;;;;4917377;29;20026;-70
2022/09/03 07:17:58;;;;;;;2.28;1.23;;;17.30;64.90;;;;;;4926090;29;20044;-70
2022/09/03 07:20:24;;;;;;;3.15;1.20;;;17.40;65.00;;;;;;4925998;29;20027;-70
2022/09/03 07:22:50;;;;;;;1.90;1.15;;;17.50;66.00;;;;;;4924841;29;20039;-70
2022/09/03 07:25:15;;;;;;;1.92;0.77;;;17.50;64.70;;;;;;4922472;29;20055;-69
2022/09/03 07:27:41;;;;;;;3.88;1.23;;;17.70;65.70;;;;;;4923029;29;20083;-69
2022/09/03 07:30:09;;;;;;;2.20;1.33;;;17.80;64.80;;;;;;4919993;29;20043;-70
2022/09/03 07:32:39;;;;;;;1.70;1.25;;;17.90;65.00;;;;;;4920326;29;20036;-69
2022/09/03 07:35:05;;;;;;;6.15;1.27;;;17.80;63.80;;;;;;4921258;29;20037;-70
2022/09/03 07:37:32;;;;;;;3.25;1.00;;;17.80;63.70;;;;;;4926958;28;20031;-69
2022/09/03 07:39:58;;;;;;;2.33;1.20;;;17.80;63.60;;;;;;4925145;29;20024;-69
2022/09/03 07:42:26;;;;;;;2.72;1.05;;;17.90;63.70;;;;;;4925019;29;20031;-69
2022/09/03 07:44:51;;;;;;;3.50;1.45;;;18.00;64.00;;;;;;4922206;29;20036;-70
2022/09/03 07:47:18;;;;;;;1.25;1.00;;;18.10;63.70;;;;;;4921406;29;20035;-71
2022/09/03 07:49:44;;;;;;;3.28;1.05;;;18.20;64.10;;;;;;4920284;29;20528;-70
2022/09/03 07:52:10;;;;;;;1.63;1.00;;;18.20;63.50;;;;;;4918324;29;20043;-70
2022/09/03 07:54:36;;;;;;;2.28;1.00;;;18.20;63.00;;;;;;4922699;29;20024;-70
2022/09/03 07:57:01;;;;;;;3.33;1.30;;;18.10;63.70;;;;;;4925108;29;20456;-70
2022/09/03 07:59:27;;;;;;;5.05;1.17;;;18.10;63.10;;;;;;4925236;29;20082;-70
2022/09/03 08:01:53;;;;;;;2.10;1.13;;;18.20;63.00;;;;;;4924661;29;20055;-70
2022/09/03 08:04:20;;;;;;;5.10;1.30;;;18.20;61.70;;;;;;4923874;29;20050;-70
2022/09/03 08:06:47;;;;;;;1.85;1.00;;;18.20;63.50;;;;;;4919770;29;20039;-70
2022/09/03 08:09:12;;;;;;;6.13;1.08;;;18.20;63.60;;;;;;4920082;29;20040;-71
2022/09/03 08:11:42;;;;;;;2.72;1.10;;;18.30;64.70;;;;;;4919623;29;20551;-71
2022/09/03 08:14:12;;;;;;;2.53;1.13;;;18.40;65.40;;;;;;4923854;29;20067;-69
2022/09/03 08:16:44;;;;;;;3.72;1.20;;;18.50;65.00;;;;;;4927522;28;20035;-69
2022/09/03 08:19:12;;;;;;;2.30;1.23;;;18.60;64.80;;;;;;4924058;29;20064;-70
2022/09/03 08:21:40;;;;;;;1.80;0.98;;;18.60;63.10;;;;;;4924655;29;20039;-69
2022/09/03 08:24:06;;;;;;;3.05;1.35;;;18.70;62.80;;;;;;4920768;29;20044;-68
2022/09/03 08:26:34;;;;;;;1.83;0.93;;;18.70;61.70;;;;;;4922313;29;20036;-71
2022/09/03 08:29:01;;;;;;;1.75;1.00;;;18.70;61.20;;;;;;4917991;29;20067;-69
2022/09/03 08:31:28;;;;;;;3.40;1.20;;;18.80;63.00;;;;;;4920606;29;20040;-70
2022/09/03 08:33:56;;;;;;;2.50;1.10;;;18.70;61.60;;;;;;4923599;29;20039;-70
2022/09/03 08:36:24;;;;;;;3.78;1.05;;;18.80;61.90;;;;;;4924781;29;20035;-70
2022/09/03 08:38:53;;;;;;;1.88;1.27;;;18.80;62.30;;;;;;4925486;29;20149;-70
2022/09/03 08:41:39;;;;;;;3.67;1.10;;;18.70;62.40;;;;;;4922303;29;20047;-70
2022/09/03 08:44:45;;;;;;;2.92;1.00;;;18.80;61.70;;;;;;4918557;29;20512;-70
2022/09/03 08:47:34;;;;;;;2.33;1.10;;;18.80;62.00;;;;;;4921322;29;20051;-70
2022/09/03 08:50:09;;;;;;;5.18;1.20;;;18.90;62.30;;;;;;4919339;29;20093;-69
2022/09/03 08:52:48;;;;;;;5.07;1.20;;;18.90;61.00;;;;;;4926455;29;20374;-69
2022/09/03 08:55:26;;;;;;;3.15;1.10;;;18.90;60.90;;;;;;4924233;29;20121;-71
2022/09/03 08:58:01;;;;;;;4.60;1.23;;;19.10;60.00;;;;;;4922559;29;20036;-70
2022/09/03 09:00:39;;;;;;;2.53;1.08;;;19.20;60.90;;;;;;4919560;29;20288;-70
2022/09/03 09:03:11;;;;;;;2.30;0.90;;;19.20;60.70;;;;;;4921463;29;20035;-70
2022/09/03 09:05:41;;;;;;;3.33;1.08;;;19.30;59.00;;;;;;4920300;29;20035;-70
2022/09/03 09:08:31;;;;;;;1.70;1.20;;;19.40;58.80;;;;;;4917664;29;20046;-71
2022/09/03 09:11:16;;;;;;;3.60;1.08;;;19.40;59.40;;;;;;4923417;29;20035;-70
2022/09/03 09:13:49;;;;;;;4.03;0.90;;;19.50;59.40;;;;;;4921111;29;20036;-71
2022/09/03 09:16:26;;;;;;;4.15;1.42;;;19.50;56.70;;;;;;4922795;29;20040;-70
2022/09/03 09:19:11;;;;;;;5.93;1.10;;;19.70;59.50;;;;;;4921677;29;20036;-70
2022/09/03 09:22:00;;;;;;;2.70;1.05;;;20.00;59.70;;;;;;4920853;29;20440;-70
2022/09/03 09:24:34;;;;;;;2.42;1.17;;;20.20;57.20;;;;;;4920359;29;20098;-70
2022/09/03 09:27:03;;;;;;;2.60;1.10;;;20.30;58.60;;;;;;4915372;29;20047;-70
2022/09/03 09:29:36;;;;;;;0.98;0.73;;;20.40;57.20;;;;;;4926361;28;20035;-70
2022/09/03 09:32:06;;;;;;;2.75;1.10;;;20.50;58.10;;;;;;4923967;29;20094;-70
2022/09/03 09:34:40;;;;;;;2.10;1.33;;;20.50;55.50;;;;;;4923891;28;20027;-70
2022/09/03 09:37:10;;;;;;;4.32;1.20;;;20.60;56.00;;;;;;4920717;29;20029;-69
2022/09/03 09:39:36;;;;;;;2.05;0.88;;;20.70;56.90;;;;;;4921738;29;20510;-70
2022/09/03 09:42:10;;;;;;;4.25;1.33;;;20.90;56.20;;;;;;4917993;29;20698;-70
2022/09/03 09:44:42;;;;;;;1.95;1.02;;;21.10;56.90;;;;;;4918667;29;20042;-70
2022/09/03 09:47:20;;;;;;;5.40;1.13;;;21.30;55.80;;;;;;4919993;29;20117;-70
2022/09/03 09:49:45;;;;;;;1.92;1.00;;;21.50;54.30;;;;;;4925000;29;20027;-70
2022/09/03 09:52:14;;;;;;;2.58;0.88;;;21.70;51.00;;;;;;4923836;29;20063;-70
2022/09/03 09:54:42;;;;;;;2.17;0.70;;;21.80;52.10;;;;;;4922548;29;20686;-69
2022/09/03 09:57:18;;;;;;;1.60;0.93;;;21.80;50.50;;;;;;4919443;29;20053;-70
2022/09/03 09:59:45;;;;;;;3.28;0.88;;;21.90;51.40;;;;;;4919730;29;20036;-70
2022/09/03 10:02:27;;;;;;;2.78;0.80;;;22.00;52.10;;;;;;4917886;29;20055;-70
2022/09/03 10:05:19;;;;;;;2.15;0.90;;;22.10;50.60;;;;;;4917730;29;20096;-71
2022/09/03 10:07:58;;;;;;;1.00;0.82;;;22.10;51.10;;;;;;4924721;29;20052;-71
2022/09/03 10:10:25;;;;;;;1.50;0.90;;;22.20;51.40;;;;;;4923606;29;20616;-72
2022/09/03 10:13:01;;;;;;;2.08;1.23;;;22.10;50.10;;;;;;4922411;29;20087;-69
2022/09/03 10:15:30;;;;;;;1.60;0.77;;;22.00;48.70;;;;;;4917829;29;20035;-69
2022/09/03 10:18:07;;;;;;;2.15;0.90;;;21.90;48.00;;;;;;4918310;29;20099;-70
2022/09/03 10:20:43;;;;;;;0.93;0.80;;;21.90;49.70;;;;;;4924207;29;20051;-70
2022/09/03 10:23:27;;;;;;;2.40;0.88;;;22.00;48.80;;;;;;4915404;29;20127;-70
2022/09/03 10:26:07;;;;;;;1.20;1.00;;;22.20;49.90;;;;;;4921112;29;20590;-71
2022/09/03 10:28:38;;;;;;;3.63;0.82;;;22.50;49.40;;;;;;4918207;29;20070;-71
2022/09/03 10:31:30;;;;;;;1.20;0.90;;;22.60;48.70;;;;;;4922598;29;20151;-71
2022/09/03 10:34:16;;;;;;;2.65;0.75;;;22.70;45.90;;;;;;4919462;29;20048;-69
2022/09/03 10:36:59;;;;;;;2.38;0.63;;;22.50;47.20;;;;;;4919034;29;20467;-70
2022/09/03 10:39:36;;;;;;;1.65;0.90;;;22.60;46.20;;;;;;4919078;29;20042;-71
2022/09/03 10:42:39;;;;;;;1.25;0.47;;;22.80;46.80;;;;;;4914919;29;20048;-70
2022/09/03 10:45:05;;;;;;;1.05;0.60;;;23.20;45.60;;;;;;4921375;29;20055;-71
2022/09/03 10:48:15;;;;;;;5.13;0.80;;;23.30;42.60;;;;;;4923218;29;20511;-72
2022/09/03 10:50:52;;;;;;;3.38;0.88;;;23.30;42.90;;;;;;4921562;29;20170;-71
2022/09/03 10:53:37;;;;;;;1.88;0.98;;;23.50;43.10;;;;;;4919170;29;20041;-74
2022/09/03 10:56:31;;;;;;;1.05;0.65;;;23.40;42.40;;;;;;4918215;29;20394;-72
2022/09/03 10:59:36;;;;;;;2.10;0.88;;;23.50;42.10;;;;;;4918335;29;20484;-72
2022/09/03 11:02:24;;;;;;;0.80;0.57;;;23.40;42.60;;;;;;4922049;29;20043;-72
2022/09/03 11:05:06;;;;;;;2.15;1.02;;;23.40;44.50;;;;;;4923915;29;20114;-72
2022/09/03 11:07:39;;;;;;;5.97;1.08;;;23.60;45.10;;;;;;4920917;29;20090;-72
2022/09/03 11:10:26;;;;;;;2.38;1.10;;;23.50;41.80;;;;;;4920097;29;20094;-72
2022/09/03 11:13:03;;;;;;;1.95;0.82;;;23.60;43.70;;;;;;4919035;29;20036;-71
2022/09/03 11:15:32;;;;;;;1.58;0.90;;;23.60;42.30;;;;;;4917903;29;20024;-72
2022/09/03 11:18:01;;;;;;;1.65;0.90;;;23.40;42.70;;;;;;4914642;29;20031;-72
2022/09/03 11:20:29;;;;;;;3.03;0.80;;;23.40;43.20;;;;;;4917152;29;20035;-70
2022/09/03 11:22:59;;;;;;;1.25;0.80;;;23.50;44.00;;;;;;4920493;29;20163;-71
2022/09/03 11:25:32;;;;;;;1.70;0.95;;;23.40;42.40;;;;;;4922249;29;20038;-70
2022/09/03 11:28:37;;;;;;;1.70;0.80;;;23.30;42.50;;;;;;4919985;29;20040;-71
2022/09/03 11:31:17;;;;;;;0.95;0.82;;;23.20;43.00;;;;;;4918498;29;20066;-71
2022/09/03 11:34:00;;;;;;;1.58;0.77;;;23.10;43.20;;;;;;4917933;29;20163;-71
2022/09/03 11:36:43;;;;;;;2.10;0.70;;;23.10;43.50;;;;;;4918346;29;20042;-71
2022/09/03 11:39:37;;;;;;;7.47;1.08;;;23.10;43.40;;;;;;4914718;29;20032;-70
2022/09/03 11:42:29;;;;;;;2.72;0.90;;;23.00;43.50;;;;;;4920502;29;20118;-70
2022/09/03 11:45:11;;;;;;;3.65;0.80;;;22.90;42.90;;;;;;4919989;29;20039;-71
2022/09/03 11:47:42;;;;;;;1.90;0.90;;;22.80;44.00;;;;;;4921663;29;20043;-71
2022/09/03 11:50:31;;;;;;;1.63;0.80;;;22.80;44.00;;;;;;4920783;29;20878;-71
2022/09/03 11:53:23;;;;;;;3.28;1.00;;;22.70;43.90;;;;;;4921561;29;20047;-71
2022/09/03 11:55:55;;;;;;;1.63;0.85;;;22.90;45.40;;;;;;4921076;29;20094;-71
2022/09/03 11:58:32;;;;;;;2.47;0.90;;;23.20;46.00;;;;;;4920123;29;20444;-71
2022/09/03 12:01:01;;;;;;;2.05;1.00;;;23.40;43.60;;;;;;4924428;29;20040;-72
2022/09/03 12:03:44;;;;;;;1.60;0.93;;;23.40;42.60;;;;;;4926706;29;20102;-71
2022/09/03 12:06:30;;;;;;;1.13;0.73;;;23.40;42.90;;;;;;4923794;29;20624;-71
2022/09/03 12:09:24;;;;;;;0.98;0.82;;;23.50;42.00;;;;;;4922317;29;20039;-71
2022/09/03 12:12:26;;;;;;;2.30;1.00;;;23.40;44.20;;;;;;4922071;29;20046;-71
2022/09/03 12:15:22;;;;;;;3.00;1.17;;;23.30;43.20;;;;;;4920606;29;20058;-71
2022/09/03 12:18:17;;;;;;;2.47;1.02;;;23.20;42.50;;;;;;4922857;29;20027;-71
2022/09/03 12:20:33;;;;;;;2.08;1.20;;;23.10;43.70;;;;;;4926095;29;20039;-71
2022/09/03 12:23:02;;;;;;;1.88;0.70;;;23.20;44.30;;;;;;4923867;29;20686;-71
2022/09/03 12:25:28;;;;;;;5.38;0.75;;;23.20;42.70;;;;;;4926182;29;20057;-71
2022/09/03 12:27:54;;;;;;;3.90;1.15;;;23.40;43.30;;;;;;4922195;29;20063;-71
2022/09/03 12:30:24;;;;;;;1.42;0.75;;;23.30;42.90;;;;;;4922208;29;20496;-71
2022/09/03 12:33:02;;;;;;;1.98;0.85;;;23.30;43.00;;;;;;4919731;29;20035;-71
2022/09/03 12:35:27;;;;;;;3.90;1.08;;;23.30;43.30;;;;;;4920287;29;20495;-71
2022/09/03 12:37:54;;;;;;;5.03;1.00;;;23.30;43.20;;;;;;4923472;29;20062;-71
2022/09/03 12:40:26;;;;;;;3.80;0.98;;;23.30;43.30;;;;;;4925497;29;20060;-71
2022/09/03 12:42:53;;;;;;;5.45;1.00;;;23.30;42.80;;;;;;4922848;29;20040;-71
2022/09/03 12:45:24;;;;;;;1.00;0.90;;;23.20;43.40;;;;;;4923257;29;20044;-72
2022/09/03 12:47:50;;;;;;;2.55;0.90;;;23.20;42.80;;;;;;4921787;29;20032;-71
2022/09/03 12:50:18;;;;;;;6.05;1.00;;;23.30;44.30;;;;;;4920729;29;20768;-71
2022/09/03 12:52:58;;;;;;;1.67;0.80;;;23.40;44.60;;;;;;4920163;29;20550;-72
2022/09/03 12:55:42;;;;;;;2.58;0.93;;;23.30;44.00;;;;;;4919550;29;20031;-71
2022/09/03 12:58:11;;;;;;;1.15;0.70;;;23.20;42.30;;;;;;4924004;29;20020;-71
2022/09/03 13:00:41;;;;;;;1.35;0.73;;;23.10;43.80;;;;;;4923624;29;20074;-71
2022/09/03 13:03:29;;;;;;;2.67;0.80;;;23.00;44.10;;;;;;4924015;29;20047;-71
2022/09/03 13:06:12;;;;;;;2.28;1.08;;;22.90;42.40;;;;;;4922711;29;20075;-71
2022/09/03 13:08:43;;;;;;;2.03;0.65;;;22.90;44.00;;;;;;4917469;29;20047;-71
2022/09/03 13:11:09;;;;;;;1.98;1.00;;;22.90;43.30;;;;;;4917847;29;20044;-71
2022/09/03 13:13:36;;;;;;;1.38;0.90;;;22.80;42.60;;;;;;4919459;28;20112;-71
2022/09/03 13:16:08;;;;;;;1.45;0.90;;;22.70;43.30;;;;;;4926172;29;20404;-71
2022/09/03 13:18:52;;;;;;;1.45;1.00;;;22.70;43.90;;;;;;4925273;29;20086;-71
2022/09/03 13:21:34;;;;;;;4.60;0.93;;;22.70;42.60;;;;;;4923286;29;20044;-71
2022/09/03 13:24:28;;;;;;;2.42;0.90;;;22.60;43.00;;;;;;4921149;29;20039;-72